Time;durP1;ratioP1;P1;durP2;ratioP2;P2;SDS_P1;SDS_P2;PMS_P1;PMS_P2;Temp;Humidity;BMP_temperature;BMP_pressure;BME280_temperature;BME280_humidity;BME280_pressure;Samples;Min_cycle;Max_cycle;Signal;HPM_P1;HPM_P2
2021/07/03 00:00:22;;;;;;;6.70;4.07;;;13.00;99.90;;;;;;5052243;28;20542;-70
2021/07/03 00:02:49;;;;;;;8.40;4.03;;;13.10;99.90;;;;;;5040599;28;20207;-70
2021/07/03 00:05:17;;;;;;;8.67;3.57;;;13.20;99.90;;;;;;5052071;28;20212;-72
2021/07/03 00:07:44;;;;;;;7.97;3.53;;;13.20;99.90;;;;;;5052288;28;20211;-70
2021/07/03 00:10:12;;;;;;;4.43;2.97;;;13.30;99.90;;;;;;5051370;28;20627;-71
2021/07/03 00:12:40;;;;;;;5.00;3.23;;;13.40;99.90;;;;;;5043981;28;20191;-75
2021/07/03 00:15:12;;;;;;;6.20;3.00;;;13.50;99.90;;;;;;5052608;28;20594;-74
2021/07/03 00:17:40;;;;;;;6.40;3.03;;;13.60;99.90;;;;;;5064243;28;20233;-75
2021/07/03 00:20:09;;;;;;;10.93;3.90;;;13.70;99.90;;;;;;5072187;28;20234;-76
2021/07/03 00:22:37;;;;;;;10.33;3.90;;;13.80;99.90;;;;;;5072276;28;20183;-73
2021/07/03 00:25:07;;;;;;;8.60;3.77;;;13.90;99.90;;;;;;5071639;28;20200;-74
2021/07/03 00:27:35;;;;;;;6.33;3.30;;;13.90;99.90;;;;;;5065614;28;20179;-74
2021/07/03 00:30:02;;;;;;;4.97;3.40;;;14.00;99.90;;;;;;5071795;28;20648;-79
2021/07/03 00:32:29;;;;;;;4.07;3.03;;;14.10;99.90;;;;;;5072513;28;20190;-77
2021/07/03 00:34:57;;;;;;;3.97;2.90;;;14.10;99.90;;;;;;5054505;28;20179;-74
2021/07/03 00:37:24;;;;;;;4.97;3.30;;;14.10;99.90;;;;;;5065297;28;20523;-76
2021/07/03 00:39:52;;;;;;;4.87;3.17;;;14.20;99.90;;;;;;5066679;28;20194;-73
2021/07/03 00:42:19;;;;;;;6.70;2.90;;;14.20;99.90;;;;;;5062559;28;20186;-74
2021/07/03 00:44:47;;;;;;;3.43;2.77;;;14.50;99.90;;;;;;5069926;28;20675;-71
2021/07/03 00:47:14;;;;;;;4.27;2.40;;;14.60;99.90;;;;;;5071721;28;20171;-73
2021/07/03 00:49:42;;;;;;;14.73;3.13;;;14.70;99.90;;;;;;5065981;28;20265;-72
2021/07/03 00:52:10;;;;;;;17.60;4.60;;;14.80;99.90;;;;;;5069844;28;20179;-72
2021/07/03 00:54:39;;;;;;;6.90;3.43;;;14.90;99.90;;;;;;5069204;28;20341;-71
2021/07/03 00:57:08;;;;;;;4.90;2.60;;;15.10;99.90;;;;;;5053528;28;20183;-74
2021/07/03 00:59:38;;;;;;;18.83;5.03;;;15.10;99.90;;;;;;5062182;28;20693;-75
2021/07/03 01:02:08;;;;;;;16.00;3.50;;;15.10;99.90;;;;;;5047348;28;20187;-71
2021/07/03 01:04:36;;;;;;;3.33;2.60;;;15.30;99.90;;;;;;5043239;28;20638;-72
2021/07/03 01:07:05;;;;;;;4.33;2.47;;;15.40;99.90;;;;;;5061999;28;20508;-72
2021/07/03 01:09:32;;;;;;;3.97;2.23;;;15.60;99.90;;;;;;5023140;28;20198;-71
2021/07/03 01:12:00;;;;;;;2.40;1.87;;;15.70;99.90;;;;;;5068775;28;20183;-71
2021/07/03 01:14:27;;;;;;;12.37;3.80;;;15.90;99.90;;;;;;5071583;28;20164;-71
2021/07/03 01:16:55;;;;;;;4.20;3.20;;;16.00;99.90;;;;;;5071683;28;20223;-71
2021/07/03 01:19:25;;;;;;;6.40;2.63;;;16.10;99.90;;;;;;5070938;28;20243;-73
2021/07/03 01:21:56;;;;;;;4.07;2.00;;;16.10;99.90;;;;;;5071546;28;20723;-72
2021/07/03 01:24:25;;;;;;;6.10;2.23;;;16.20;99.90;;;;;;5071648;28;20190;-72
2021/07/03 01:26:54;;;;;;;7.40;2.27;;;16.30;99.90;;;;;;5041450;28;20197;-77
2021/07/03 01:29:25;;;;;;;5.03;1.70;;;16.40;99.90;;;;;;5070310;28;20249;-72
2021/07/03 01:31:56;;;;;;;3.13;1.83;;;16.50;99.90;;;;;;5074947;28;20828;-72
2021/07/03 01:34:26;;;;;;;3.77;1.70;;;16.60;99.90;;;;;;5071832;28;20174;-70
2021/07/03 01:36:53;;;;;;;3.77;1.80;;;16.80;99.90;;;;;;5075390;28;20253;-73
2021/07/03 01:39:22;;;;;;;2.67;1.33;;;16.90;99.90;;;;;;5068472;28;20269;-70
2021/07/03 01:41:50;;;;;;;5.60;1.80;;;17.20;99.90;;;;;;5074402;28;20183;-73
2021/07/03 01:44:27;;;;;;;1.43;1.30;;;17.30;99.90;;;;;;5075074;28;20545;-74
2021/07/03 01:46:59;;;;;;;4.53;1.53;;;17.20;99.90;;;;;;5072506;28;20178;-75
2021/07/03 01:49:28;;;;;;;7.43;3.10;;;17.40;99.90;;;;;;5073609;28;20170;-72
2021/07/03 01:51:56;;;;;;;3.27;1.67;;;17.60;99.90;;;;;;5064435;28;20630;-72
2021/07/03 01:54:24;;;;;;;3.37;1.80;;;17.80;99.90;;;;;;5055112;28;20180;-77
2021/07/03 01:57:00;;;;;;;6.03;1.60;;;18.00;99.90;;;;;;5071458;28;20183;-73
2021/07/03 01:59:29;;;;;;;1.43;0.80;;;18.10;99.90;;;;;;5074688;28;20225;-76
2021/07/03 02:01:58;;;;;;;1.00;0.90;;;18.10;99.90;;;;;;5063679;28;20572;-73
2021/07/03 02:04:25;;;;;;;4.63;1.10;;;18.10;99.90;;;;;;5072978;28;20182;-73
2021/07/03 02:06:53;;;;;;;2.77;1.00;;;18.20;99.90;;;;;;5075000;28;20175;-72
2021/07/03 02:09:21;;;;;;;1.67;0.93;;;18.40;99.90;;;;;;5074800;28;20179;-71
2021/07/03 02:11:49;;;;;;;2.77;0.90;;;18.50;99.90;;;;;;5073789;28;20179;-71
2021/07/03 02:14:17;;;;;;;5.47;1.07;;;18.70;99.50;;;;;;5074241;28;20536;-71
2021/07/03 02:16:44;;;;;;;4.93;0.90;;;18.80;99.60;;;;;;5071058;28;20227;-71
2021/07/03 02:19:12;;;;;;;2.77;0.93;;;19.00;98.80;;;;;;5074461;28;20254;-71
2021/07/03 02:21:39;;;;;;;1.10;0.80;;;19.20;98.90;;;;;;5072746;28;20178;-72
2021/07/03 02:24:07;;;;;;;2.50;1.10;;;19.30;98.90;;;;;;5070250;28;20618;-74
2021/07/03 02:26:34;;;;;;;2.53;1.17;;;19.40;98.50;;;;;;5061943;28;20183;-71
2021/07/03 02:29:02;;;;;;;2.47;0.80;;;19.60;98.70;;;;;;5072180;28;20701;-72
2021/07/03 02:31:29;;;;;;;3.53;1.00;;;19.90;98.50;;;;;;5073214;28;20179;-71
2021/07/03 02:33:57;;;;;;;4.77;1.30;;;19.90;98.10;;;;;;5073558;28;20258;-71
2021/07/03 02:36:24;;;;;;;1.80;0.90;;;19.90;98.10;;;;;;5056815;28;20180;-73
2021/07/03 02:38:52;;;;;;;0.97;0.80;;;19.90;97.30;;;;;;5068180;28;20226;-72
2021/07/03 02:41:20;;;;;;;1.87;0.70;;;19.90;98.00;;;;;;5053784;28;20290;-73
2021/07/03 02:43:47;;;;;;;1.97;0.80;;;19.90;96.60;;;;;;5069173;28;20183;-73
2021/07/03 02:46:14;;;;;;;2.63;0.90;;;19.70;97.80;;;;;;5073097;28;20589;-74
2021/07/03 02:48:42;;;;;;;2.57;1.33;;;19.80;98.00;;;;;;5055731;28;20183;-72
2021/07/03 02:51:10;;;;;;;2.90;1.10;;;19.70;98.10;;;;;;5073400;28;20263;-71
2021/07/03 02:53:40;;;;;;;1.67;0.77;;;19.70;98.10;;;;;;5055130;28;20183;-71
2021/07/03 02:56:07;;;;;;;3.07;1.20;;;20.00;98.00;;;;;;5073416;28;20690;-70
2021/07/03 02:58:34;;;;;;;2.10;0.80;;;19.80;97.10;;;;;;5070005;28;20218;-73
2021/07/03 03:01:02;;;;;;;1.37;1.17;;;19.70;98.10;;;;;;5067266;28;20207;-74
2021/07/03 03:03:31;;;;;;;1.03;0.70;;;19.70;98.00;;;;;;5055118;28;20533;-72
2021/07/03 03:05:58;;;;;;;1.33;0.60;;;19.90;97.90;;;;;;5068723;28;20224;-72
2021/07/03 03:08:25;;;;;;;1.60;0.90;;;20.00;96.60;;;;;;5046850;28;20184;-74
2021/07/03 03:10:53;;;;;;;2.20;0.70;;;19.80;96.70;;;;;;5049005;28;20241;-75
2021/07/03 03:13:20;;;;;;;5.40;0.90;;;19.70;96.70;;;;;;5071146;28;20213;-73
2021/07/03 03:15:48;;;;;;;1.13;0.50;;;19.50;96.50;;;;;;5073301;28;20262;-73
2021/07/03 03:18:15;;;;;;;1.10;0.60;;;19.90;95.70;;;;;;5072551;28;20230;-73
2021/07/03 03:20:43;;;;;;;2.33;0.90;;;20.30;95.40;;;;;;5069615;28;20187;-72
2021/07/03 03:23:10;;;;;;;0.50;0.50;;;20.20;94.60;;;;;;5072188;28;20236;-72
2021/07/03 03:25:37;;;;;;;2.20;0.70;;;20.30;94.90;;;;;;5072588;28;20195;-73
2021/07/03 03:28:05;;;;;;;0.87;0.60;;;20.30;95.70;;;;;;5071729;28;20214;-75
2021/07/03 03:30:32;;;;;;;4.43;0.90;;;20.40;95.40;;;;;;5068531;28;20190;-73
2021/07/03 03:33:00;;;;;;;0.70;0.60;;;20.30;95.90;;;;;;5072673;28;20175;-76
2021/07/03 03:35:27;;;;;;;1.47;0.67;;;20.90;94.10;;;;;;5073165;28;20186;-74
2021/07/03 03:37:54;;;;;;;2.03;0.60;;;21.20;93.80;;;;;;5051332;28;20707;-74
2021/07/03 03:40:22;;;;;;;1.53;0.70;;;21.50;92.50;;;;;;5054914;28;20183;-73
2021/07/03 03:42:50;;;;;;;2.57;0.47;;;21.80;91.60;;;;;;5072810;28;20179;-75
2021/07/03 03:45:17;;;;;;;1.70;0.60;;;22.20;90.40;;;;;;5054878;28;20598;-73
2021/07/03 03:47:45;;;;;;;1.10;0.73;;;22.30;90.70;;;;;;5072831;28;20217;-74
2021/07/03 03:50:12;;;;;;;1.60;0.80;;;22.60;90.10;;;;;;5072760;28;20183;-73
2021/07/03 03:52:40;;;;;;;3.20;1.23;;;22.60;89.50;;;;;;5070574;28;20183;-74
2021/07/03 03:55:08;;;;;;;3.90;0.93;;;22.40;90.80;;;;;;5055652;28;20183;-77
2021/07/03 03:57:35;;;;;;;2.97;0.70;;;21.90;90.60;;;;;;5072952;28;20182;-82
2021/07/03 04:00:07;;;;;;;3.80;0.60;;;22.00;91.20;;;;;;5073457;28;20633;-73
2021/07/03 04:02:34;;;;;;;2.50;0.90;;;21.90;91.30;;;;;;5073750;28;20580;-74
2021/07/03 04:05:02;;;;;;;1.47;0.57;;;22.30;90.50;;;;;;5073619;28;20354;-75
2021/07/03 04:07:29;;;;;;;1.40;0.60;;;22.30;90.30;;;;;;5071686;28;20176;-74
2021/07/03 04:09:57;;;;;;;2.47;0.70;;;22.30;89.00;;;;;;5057782;28;20187;-74
2021/07/03 04:12:25;;;;;;;0.70;0.60;;;22.80;87.10;;;;;;5072627;28;20198;-73
2021/07/03 04:14:53;;;;;;;1.40;0.50;;;23.10;84.40;;;;;;5073512;28;20179;-73
2021/07/03 04:17:20;;;;;;;3.73;0.80;;;23.50;81.80;;;;;;5073176;28;20227;-72
2021/07/03 04:19:50;;;;;;;1.90;0.70;;;23.10;83.40;;;;;;5074538;28;20279;-72
2021/07/03 04:22:20;;;;;;;2.07;0.73;;;22.80;83.90;;;;;;5073192;28;20258;-75
2021/07/03 04:24:48;;;;;;;1.33;0.60;;;22.90;81.40;;;;;;5072902;28;20190;-74
2021/07/03 04:27:16;;;;;;;2.87;0.97;;;22.10;84.90;;;;;;5073038;28;20586;-75
2021/07/03 04:29:43;;;;;;;1.37;0.70;;;22.60;85.80;;;;;;5055530;28;20190;-74
2021/07/03 04:32:11;;;;;;;0.87;0.70;;;22.80;84.00;;;;;;5072887;28;20170;-73
2021/07/03 04:34:38;;;;;;;1.20;0.80;;;23.10;83.30;;;;;;5038693;28;20171;-74
2021/07/03 04:37:06;;;;;;;5.23;0.80;;;23.40;81.30;;;;;;5055010;28;20179;-74
2021/07/03 04:39:33;;;;;;;1.87;0.67;;;22.90;82.90;;;;;;5072665;28;20253;-75
2021/07/03 04:42:00;;;;;;;3.53;0.90;;;22.80;82.70;;;;;;5071365;28;20179;-74
2021/07/03 04:44:28;;;;;;;2.67;0.80;;;23.10;83.10;;;;;;5063507;28;20195;-72
2021/07/03 04:46:55;;;;;;;1.53;0.70;;;23.30;83.10;;;;;;5071818;28;20629;-72
2021/07/03 04:49:23;;;;;;;2.53;0.67;;;23.30;83.40;;;;;;5054860;28;20687;-73
2021/07/03 04:51:50;;;;;;;3.40;0.80;;;24.00;81.50;;;;;;5072508;28;20187;-72
2021/07/03 04:54:20;;;;;;;3.00;0.80;;;24.10;81.30;;;;;;5071116;28;20537;-78
2021/07/03 04:56:48;;;;;;;2.50;0.90;;;23.30;84.90;;;;;;5072687;28;20513;-72
2021/07/03 04:59:15;;;;;;;9.10;1.40;;;22.20;88.10;;;;;;5069407;28;20215;-73
2021/07/03 05:01:43;;;;;;;3.67;0.93;;;21.90;89.80;;;;;;5071046;28;20179;-73
2021/07/03 05:04:10;;;;;;;7.07;1.23;;;21.90;90.30;;;;;;5075458;28;20197;-74
2021/07/03 05:06:37;;;;;;;2.83;0.97;;;21.80;90.00;;;;;;5075334;28;20176;-73
2021/07/03 05:09:05;;;;;;;7.40;1.07;;;20.80;92.50;;;;;;5076326;28;20171;-73
2021/07/03 05:11:32;;;;;;;2.37;1.23;;;20.30;93.90;;;;;;5076015;28;20281;-74
2021/07/03 05:13:59;;;;;;;2.60;1.17;;;19.90;95.10;;;;;;5072750;28;20281;-74
2021/07/03 05:16:27;;;;;;;3.87;1.20;;;19.60;96.20;;;;;;5075572;28;20250;-74
2021/07/03 05:18:54;;;;;;;7.30;1.77;;;19.50;98.00;;;;;;5075024;28;20210;-74
2021/07/03 05:21:22;;;;;;;7.63;1.70;;;19.30;99.90;;;;;;5068755;28;20270;-73
2021/07/03 05:23:49;;;;;;;6.30;1.73;;;19.10;99.90;;;;;;5074258;28;20190;-73
2021/07/03 05:26:17;;;;;;;5.93;1.70;;;19.00;99.90;;;;;;5074455;28;20515;-72
2021/07/03 05:28:44;;;;;;;2.70;1.67;;;18.90;99.90;;;;;;5040401;28;20653;-75
2021/07/03 05:31:11;;;;;;;8.50;1.93;;;18.80;99.90;;;;;;5075478;28;20240;-73
2021/07/03 05:33:40;;;;;;;7.30;1.60;;;18.70;99.90;;;;;;5072019;28;20186;-75
2021/07/03 05:36:07;;;;;;;9.43;1.53;;;18.70;99.90;;;;;;5065808;28;20186;-71
2021/07/03 05:38:42;;;;;;;8.87;1.70;;;18.60;99.90;;;;;;5055464;28;20251;-72
2021/07/03 05:41:10;;;;;;;5.70;1.57;;;18.60;99.90;;;;;;5065552;28;20687;-73
2021/07/03 05:43:38;;;;;;;5.73;1.43;;;18.50;99.90;;;;;;5072191;28;20540;-72
2021/07/03 05:46:06;;;;;;;5.27;1.60;;;18.40;99.90;;;;;;5074976;28;20167;-73
2021/07/03 05:48:35;;;;;;;6.60;2.00;;;18.40;99.90;;;;;;5074999;28;20214;-71
2021/07/03 05:51:03;;;;;;;5.23;1.90;;;18.40;99.90;;;;;;5074439;28;20582;-72
2021/07/03 05:53:31;;;;;;;4.00;1.57;;;18.40;99.90;;;;;;5070472;28;20190;-72
2021/07/03 05:55:58;;;;;;;6.00;1.77;;;18.30;99.90;;;;;;5073609;28;20190;-73
2021/07/03 05:58:25;;;;;;;6.60;1.97;;;18.30;99.90;;;;;;5071167;28;20306;-72
2021/07/03 06:00:53;;;;;;;5.57;2.00;;;18.20;99.90;;;;;;5074209;28;20811;-71
2021/07/03 06:03:22;;;;;;;6.37;1.50;;;18.30;99.90;;;;;;5057077;28;20175;-71
2021/07/03 06:05:50;;;;;;;2.97;1.40;;;18.20;99.90;;;;;;5068816;28;20198;-72
2021/07/03 06:08:17;;;;;;;5.87;1.63;;;18.10;99.90;;;;;;5062293;28;20291;-75
2021/07/03 06:10:45;;;;;;;5.93;2.30;;;18.20;99.90;;;;;;5073617;28;20183;-76
2021/07/03 06:13:12;;;;;;;6.97;2.37;;;18.10;99.90;;;;;;5074085;28;20176;-70
2021/07/03 06:15:39;;;;;;;5.53;2.10;;;18.00;99.90;;;;;;5060317;28;20670;-72
2021/07/03 06:18:07;;;;;;;6.23;1.70;;;18.00;99.90;;;;;;5068414;28;20234;-76
2021/07/03 06:20:34;;;;;;;10.90;2.30;;;18.00;99.90;;;;;;5074240;28;20180;-73
2021/07/03 06:23:01;;;;;;;5.43;1.63;;;18.00;99.90;;;;;;5068082;28;20176;-73
2021/07/03 06:25:29;;;;;;;5.73;2.60;;;17.90;99.90;;;;;;5054768;28;20187;-71
2021/07/03 06:27:56;;;;;;;5.93;1.97;;;17.90;99.90;;;;;;5073382;28;20175;-70
2021/07/03 06:30:24;;;;;;;10.17;5.47;;;17.90;99.90;;;;;;5073598;28;20175;-73
2021/07/03 06:32:51;;;;;;;11.20;7.17;;;17.70;99.90;;;;;;5069940;28;20210;-73
2021/07/03 06:35:18;;;;;;;8.10;4.03;;;17.60;99.90;;;;;;5071289;28;20704;-72
2021/07/03 06:37:46;;;;;;;3.90;1.90;;;17.50;99.90;;;;;;5073928;28;20175;-74
2021/07/03 06:40:15;;;;;;;5.50;1.60;;;17.40;99.90;;;;;;5068145;28;20178;-73
2021/07/03 06:42:43;;;;;;;3.60;1.63;;;17.30;99.90;;;;;;5073499;28;20189;-72
2021/07/03 06:45:11;;;;;;;2.30;1.57;;;17.30;99.90;;;;;;5074117;28;20175;-71
2021/07/03 06:47:38;;;;;;;8.00;1.40;;;17.20;99.90;;;;;;5073561;28;20196;-70
2021/07/03 06:50:06;;;;;;;7.10;1.77;;;17.20;99.90;;;;;;5073191;28;20189;-69
2021/07/03 06:52:34;;;;;;;7.10;1.80;;;17.00;99.90;;;;;;5073456;28;20182;-73
2021/07/03 06:55:01;;;;;;;4.37;1.60;;;16.90;99.90;;;;;;5073669;28;20178;-72
2021/07/03 06:57:29;;;;;;;5.90;1.47;;;16.80;99.90;;;;;;5070474;28;20521;-71
2021/07/03 06:59:56;;;;;;;4.03;2.10;;;16.80;99.90;;;;;;5070425;28;20213;-70
2021/07/03 07:02:24;;;;;;;3.53;1.70;;;16.70;99.90;;;;;;5069967;28;20183;-71
2021/07/03 07:04:51;;;;;;;4.00;1.70;;;16.70;99.90;;;;;;5072871;28;20189;-71
2021/07/03 07:07:18;;;;;;;6.70;2.53;;;16.60;99.90;;;;;;5054874;28;20190;-74
2021/07/03 07:09:46;;;;;;;7.53;2.40;;;16.60;99.90;;;;;;5071057;28;20201;-70
2021/07/03 07:12:13;;;;;;;5.83;2.10;;;16.50;99.90;;;;;;5069944;28;20962;-73
2021/07/03 07:14:42;;;;;;;7.23;2.50;;;16.40;99.90;;;;;;5074320;28;20563;-72
2021/07/03 07:17:11;;;;;;;8.07;2.80;;;16.30;99.90;;;;;;5067961;28;20278;-70
2021/07/03 07:19:38;;;;;;;10.47;3.67;;;16.30;99.90;;;;;;5062444;28;20234;-72
2021/07/03 07:22:06;;;;;;;11.00;2.70;;;16.30;99.90;;;;;;5071983;28;20577;-71
2021/07/03 07:24:33;;;;;;;10.10;2.63;;;16.20;99.90;;;;;;5073256;28;21073;-78
2021/07/03 07:27:01;;;;;;;9.50;2.53;;;16.20;99.90;;;;;;5054492;28;20181;-71
2021/07/03 07:29:28;;;;;;;5.47;2.33;;;16.10;99.90;;;;;;5073244;28;20216;-73
2021/07/03 07:31:56;;;;;;;7.13;2.67;;;16.10;99.90;;;;;;5072953;28;20663;-71
2021/07/03 07:34:23;;;;;;;6.13;3.00;;;16.00;99.90;;;;;;5072736;28;20180;-70
2021/07/03 07:36:50;;;;;;;7.30;3.03;;;16.00;99.90;;;;;;5072709;28;20334;-76
2021/07/03 07:39:18;;;;;;;7.40;2.80;;;16.00;99.90;;;;;;5072953;28;20209;-74
2021/07/03 07:41:46;;;;;;;7.67;3.67;;;16.00;99.90;;;;;;5072608;28;20233;-71
2021/07/03 07:44:14;;;;;;;8.70;3.93;;;16.00;99.90;;;;;;5069106;28;20183;-71
2021/07/03 07:46:41;;;;;;;13.30;4.87;;;16.00;99.90;;;;;;5062520;28;20178;-72
2021/07/03 07:49:08;;;;;;;14.80;4.90;;;16.00;99.90;;;;;;5053884;28;20190;-70
2021/07/03 07:51:36;;;;;;;12.07;4.80;;;16.00;99.90;;;;;;5070897;28;20194;-71
2021/07/03 07:54:04;;;;;;;9.53;4.60;;;16.10;99.90;;;;;;5069025;28;20232;-71
2021/07/03 07:56:31;;;;;;;13.07;5.67;;;16.10;99.90;;;;;;5062712;28;20554;-74
2021/07/03 07:58:59;;;;;;;13.00;5.70;;;16.00;99.90;;;;;;5069688;28;20220;-73
2021/07/03 08:01:26;;;;;;;9.63;4.43;;;16.10;99.90;;;;;;5071746;28;20174;-71
2021/07/03 08:03:53;;;;;;;19.33;7.37;;;16.10;99.90;;;;;;5072331;28;20188;-75
2021/07/03 08:06:21;;;;;;;22.57;9.60;;;16.00;99.90;;;;;;5066595;28;20260;-71
2021/07/03 08:08:48;;;;;;;24.50;10.67;;;16.00;99.90;;;;;;5072288;28;20273;-74
2021/07/03 08:11:16;;;;;;;22.50;9.67;;;16.00;99.90;;;;;;5072413;28;20241;-71
2021/07/03 08:13:43;;;;;;;15.90;8.43;;;16.00;99.90;;;;;;5054936;28;20232;-75
2021/07/03 08:16:11;;;;;;;15.10;6.47;;;16.00;99.90;;;;;;5071697;28;20252;-69
2021/07/03 08:18:38;;;;;;;11.47;5.90;;;16.00;99.90;;;;;;5072376;28;20241;-71
2021/07/03 08:21:06;;;;;;;14.80;6.03;;;15.90;99.90;;;;;;5072283;28;20209;-73
2021/07/03 08:23:33;;;;;;;15.80;6.17;;;15.90;99.90;;;;;;5072385;28;20174;-71
2021/07/03 08:26:00;;;;;;;11.87;6.23;;;15.90;99.90;;;;;;5071791;28;20180;-73
2021/07/03 08:28:28;;;;;;;13.67;6.50;;;15.90;99.90;;;;;;5072564;28;20633;-71
2021/07/03 08:30:55;;;;;;;13.07;6.57;;;15.90;99.90;;;;;;5072164;28;20791;-71
2021/07/03 08:33:22;;;;;;;12.97;7.60;;;15.90;99.90;;;;;;5072224;28;20643;-71
2021/07/03 08:35:50;;;;;;;15.80;8.50;;;15.80;99.90;;;;;;5054449;28;20224;-70
2021/07/03 08:38:17;;;;;;;12.10;6.50;;;15.70;99.90;;;;;;5072425;28;20213;-72
2021/07/03 08:40:45;;;;;;;11.53;6.00;;;15.70;99.90;;;;;;5076669;28;20179;-77
2021/07/03 08:43:12;;;;;;;14.83;7.10;;;15.60;99.90;;;;;;5076218;28;20616;-78
2021/07/03 08:45:39;;;;;;;16.30;7.50;;;15.50;99.90;;;;;;5076172;28;20211;-78
2021/07/03 08:48:07;;;;;;;12.97;6.63;;;15.40;99.90;;;;;;5073890;28;20193;-77
2021/07/03 08:50:34;;;;;;;14.47;6.70;;;15.40;99.90;;;;;;5075909;28;20194;-76
2021/07/03 08:53:06;;;;;;;14.07;5.77;;;15.30;99.90;;;;;;5075972;28;20555;-78
2021/07/03 08:55:36;;;;;;;11.00;5.80;;;15.30;99.90;;;;;;5073149;28;20171;-74
2021/07/03 08:58:06;;;;;;;12.10;6.37;;;15.30;99.90;;;;;;5070988;28;20204;-75
2021/07/03 09:00:35;;;;;;;14.07;6.87;;;15.30;99.90;;;;;;5063486;28;20266;-76
2021/07/03 09:03:23;;;;;;;14.30;6.87;;;15.30;99.90;;;;;;5071902;28;20179;-73
2021/07/03 09:05:55;;;;;;;14.60;7.30;;;15.40;99.90;;;;;;5075671;28;20176;-70
2021/07/03 09:08:28;;;;;;;16.70;7.80;;;15.40;99.90;;;;;;5070875;28;20199;-70
2021/07/03 09:11:09;;;;;;;11.53;7.20;;;15.50;99.90;;;;;;5075823;28;20179;-70
2021/07/03 09:13:39;;;;;;;13.70;6.87;;;15.50;99.90;;;;;;5075688;28;20647;-70
2021/07/03 09:16:07;;;;;;;14.73;6.40;;;15.50;99.90;;;;;;5071272;28;20276;-73
2021/07/03 09:18:35;;;;;;;9.90;6.17;;;15.50;99.90;;;;;;5068825;28;20226;-73
2021/07/03 09:21:05;;;;;;;15.83;7.43;;;15.50;99.90;;;;;;5075426;28;20258;-73
2021/07/03 09:23:39;;;;;;;12.50;7.33;;;15.50;99.90;;;;;;5063914;28;20189;-71
2021/07/03 09:26:09;;;;;;;13.60;7.87;;;15.50;99.90;;;;;;5075272;28;20248;-69
2021/07/03 09:28:43;;;;;;;18.87;8.07;;;15.40;99.90;;;;;;5074662;28;20182;-75
2021/07/03 09:31:14;;;;;;;16.93;8.17;;;15.40;99.90;;;;;;5045791;28;20638;-69
2021/07/03 09:33:48;;;;;;;17.47;9.50;;;15.40;99.90;;;;;;5066201;28;20229;-71
2021/07/03 09:36:24;;;;;;;22.83;14.47;;;15.30;99.90;;;;;;5069098;28;20722;-70
2021/07/03 09:38:54;;;;;;;29.10;18.80;;;15.30;99.90;;;;;;5073816;28;20391;-71
2021/07/03 09:41:31;;;;;;;34.50;18.70;;;15.30;99.90;;;;;;5074692;28;20174;-70
2021/07/03 09:43:59;;;;;;;29.60;17.97;;;15.30;99.90;;;;;;5074830;28;20249;-76
2021/07/03 09:46:37;;;;;;;29.50;18.17;;;15.30;99.90;;;;;;5049214;28;20221;-70
2021/07/03 09:49:07;;;;;;;31.80;18.43;;;15.20;99.90;;;;;;5073354;28;20179;-70
2021/07/03 09:51:37;;;;;;;24.67;15.20;;;15.00;99.90;;;;;;5066292;28;20646;-70
2021/07/03 09:54:07;;;;;;;17.53;9.47;;;15.00;99.90;;;;;;5073908;28;20193;-73
2021/07/03 09:56:35;;;;;;;15.10;8.83;;;14.90;99.90;;;;;;5074804;28;20183;-70
2021/07/03 09:59:04;;;;;;;15.33;8.97;;;14.90;99.90;;;;;;5074875;28;20680;-71
2021/07/03 10:01:32;;;;;;;16.17;8.40;;;15.00;99.90;;;;;;5074880;28;20207;-70
2021/07/03 10:04:02;;;;;;;14.10;8.00;;;15.00;99.90;;;;;;5074079;28;20186;-73
2021/07/03 10:06:46;;;;;;;10.47;6.07;;;15.00;99.90;;;;;;5067043;28;20253;-75
2021/07/03 10:09:33;;;;;;;8.90;5.23;;;15.00;99.90;;;;;;5074130;28;20628;-74
2021/07/03 10:12:11;;;;;;;10.20;4.57;;;15.00;99.90;;;;;;5069893;28;20667;-71
2021/07/03 10:14:47;;;;;;;10.47;4.43;;;15.00;99.90;;;;;;5068603;28;20185;-72
2021/07/03 10:17:35;;;;;;;7.83;4.57;;;15.00;99.90;;;;;;5061420;28;20233;-71
2021/07/03 10:20:07;;;;;;;7.53;4.70;;;14.90;99.90;;;;;;5087039;28;20219;-69
2021/07/03 10:22:38;;;;;;;5.50;4.03;;;14.80;99.90;;;;;;5074229;28;20187;-69
2021/07/03 10:25:15;;;;;;;4.30;3.63;;;14.70;99.90;;;;;;5059459;28;20269;-70
2021/07/03 10:27:56;;;;;;;8.07;3.60;;;14.70;99.90;;;;;;5060542;28;20669;-71
2021/07/03 10:30:26;;;;;;;10.33;4.63;;;14.60;99.90;;;;;;5074166;28;20547;-70
2021/07/03 10:33:03;;;;;;;6.40;3.30;;;14.50;99.90;;;;;;5074048;28;20649;-70
2021/07/03 10:35:43;;;;;;;4.57;3.13;;;14.50;99.90;;;;;;5074184;28;20675;-69
2021/07/03 10:38:24;;;;;;;7.27;3.07;;;14.40;99.90;;;;;;5073785;28;20352;-70
2021/07/03 10:41:01;;;;;;;5.17;3.37;;;14.40;99.90;;;;;;5073987;28;20187;-69
2021/07/03 10:43:29;;;;;;;6.97;3.20;;;14.20;99.90;;;;;;5055911;28;20175;-73
2021/07/03 10:45:56;;;;;;;6.10;3.83;;;14.20;99.90;;;;;;5074053;28;20178;-71
2021/07/03 10:48:26;;;;;;;7.00;4.13;;;14.10;99.90;;;;;;5074001;28;20191;-72
2021/07/03 10:51:09;;;;;;;5.50;3.47;;;14.00;99.90;;;;;;5073517;28;20656;-70
2021/07/03 10:53:37;;;;;;;6.83;4.17;;;13.90;99.90;;;;;;5073789;28;20668;-71
2021/07/03 10:56:13;;;;;;;6.50;3.77;;;13.90;99.90;;;;;;5068993;28;20180;-71
2021/07/03 10:58:42;;;;;;;6.13;3.67;;;13.80;99.90;;;;;;5067664;28;20211;-70
2021/07/03 11:01:15;;;;;;;6.90;3.80;;;13.80;99.90;;;;;;5062479;28;20195;-71
2021/07/03 11:03:50;;;;;;;6.33;2.73;;;13.80;99.90;;;;;;5059525;28;20193;-70
2021/07/03 11:06:22;;;;;;;3.93;3.10;;;13.80;99.90;;;;;;5057484;28;20293;-69
2021/07/03 11:08:50;;;;;;;3.73;2.60;;;13.80;99.90;;;;;;5065872;28;20710;-70
2021/07/03 11:11:19;;;;;;;6.17;3.20;;;13.70;99.90;;;;;;5073308;28;20529;-70
2021/07/03 11:13:47;;;;;;;5.30;3.57;;;13.80;99.90;;;;;;5072861;28;20186;-72
2021/07/03 11:16:16;;;;;;;5.90;3.57;;;13.80;99.90;;;;;;5055121;28;20225;-70
2021/07/03 11:18:45;;;;;;;6.60;3.57;;;13.70;99.90;;;;;;5073030;28;20227;-70
2021/07/03 11:21:15;;;;;;;6.87;3.60;;;13.70;99.90;;;;;;5073285;28;20181;-70
2021/07/03 11:23:43;;;;;;;6.70;3.93;;;13.60;99.90;;;;;;5073384;28;20179;-70
2021/07/03 11:26:13;;;;;;;4.90;3.50;;;13.60;99.90;;;;;;5072601;28;20181;-70
2021/07/03 11:28:41;;;;;;;7.60;4.00;;;13.60;99.90;;;;;;5068843;28;20233;-69
2021/07/03 11:31:09;;;;;;;6.20;3.70;;;13.50;99.90;;;;;;5072819;28;20266;-69
2021/07/03 11:33:40;;;;;;;6.80;4.17;;;13.40;99.90;;;;;;5072732;28;20236;-70
2021/07/03 11:36:11;;;;;;;5.93;4.00;;;13.40;99.90;;;;;;5072808;28;20205;-69
2021/07/03 11:38:38;;;;;;;6.97;4.47;;;13.20;99.90;;;;;;5073043;28;20203;-71
2021/07/03 11:41:06;;;;;;;9.93;4.77;;;13.20;99.90;;;;;;5072881;28;20175;-68
2021/07/03 11:43:34;;;;;;;7.33;4.70;;;13.10;99.90;;;;;;5071591;28;20252;-72
2021/07/03 11:46:04;;;;;;;7.50;4.10;;;13.00;99.90;;;;;;5055869;28;20179;-73
2021/07/03 11:48:32;;;;;;;5.53;3.90;;;12.90;99.90;;;;;;5071776;28;20183;-70
2021/07/03 11:51:02;;;;;;;6.20;4.50;;;13.00;99.90;;;;;;5072920;28;20221;-69
2021/07/03 11:53:31;;;;;;;6.30;4.60;;;12.90;99.90;;;;;;5060797;28;20179;-70
2021/07/03 11:56:01;;;;;;;7.13;3.90;;;12.90;99.90;;;;;;5067418;28;20179;-69
2021/07/03 11:58:31;;;;;;;8.40;4.37;;;12.80;99.90;;;;;;5072791;28;20256;-68
2021/07/03 12:01:01;;;;;;;7.60;4.80;;;12.70;99.90;;;;;;5060087;28;20184;-70
2021/07/03 12:03:36;;;;;;;6.33;4.20;;;12.70;99.90;;;;;;5071084;28;20539;-68
2021/07/03 12:06:06;;;;;;;6.00;3.67;;;12.70;99.90;;;;;;5071746;28;20174;-70
2021/07/03 12:08:37;;;;;;;5.97;4.40;;;12.60;99.90;;;;;;5063667;28;20188;-69
2021/07/03 12:11:16;;;;;;;5.47;3.80;;;12.50;99.90;;;;;;5062765;28;20187;-69
2021/07/03 12:13:47;;;;;;;5.60;3.73;;;12.50;99.90;;;;;;5070891;28;20610;-69
2021/07/03 12:16:20;;;;;;;5.90;3.93;;;12.50;99.90;;;;;;5072225;28;20222;-71
2021/07/03 12:18:51;;;;;;;7.77;3.97;;;12.50;99.90;;;;;;5065965;28;20219;-77
2021/07/03 12:21:23;;;;;;;6.10;3.60;;;12.50;99.90;;;;;;5052175;28;20220;-69
2021/07/03 12:23:54;;;;;;;7.27;3.93;;;12.50;99.90;;;;;;5070338;28;20243;-72
2021/07/03 12:26:28;;;;;;;6.73;4.37;;;12.40;99.90;;;;;;5071749;28;20509;-71
2021/07/03 12:28:56;;;;;;;5.27;4.27;;;12.40;99.90;;;;;;5072261;28;20267;-69
2021/07/03 12:31:27;;;;;;;5.13;3.80;;;12.40;99.90;;;;;;5072091;28;20644;-69
2021/07/03 12:34:21;;;;;;;5.77;4.37;;;12.40;99.90;;;;;;5071885;28;20194;-71
2021/07/03 12:36:51;;;;;;;6.53;4.37;;;12.40;99.90;;;;;;5062042;28;20633;-71
2021/07/03 12:39:20;;;;;;;6.73;4.10;;;12.30;99.90;;;;;;5072362;28;20704;-73
2021/07/03 12:41:54;;;;;;;4.70;4.00;;;12.30;99.90;;;;;;5071874;28;20197;-68
2021/07/03 12:44:38;;;;;;;5.47;3.77;;;12.20;99.90;;;;;;5067892;28;20183;-69
2021/07/03 12:47:14;;;;;;;6.50;4.27;;;12.20;99.90;;;;;;5071931;28;20171;-68
2021/07/03 12:49:43;;;;;;;8.53;4.40;;;12.20;99.90;;;;;;5069604;28;20248;-68
2021/07/03 12:52:12;;;;;;;6.80;4.23;;;12.10;99.90;;;;;;5068326;28;20180;-68
2021/07/03 12:54:45;;;;;;;8.37;4.27;;;12.00;99.90;;;;;;5058744;28;20189;-72